Time;durP1;ratioP1;P1;durP2;ratioP2;P2;SDS_P1;SDS_P2;PMS_P1;PMS_P2;Temp;Humidity;BMP_temperature;BMP_pressure;BME280_temperature;BME280_humidity;BME280_pressure;Samples;Min_cycle;Max_cycle;Signal;HPM_P1;HPM_P2
2022/05/07 00:00:33;;;;;;;5.30;2.53;;;;;;;10.86;63.35;101432.34;2094190;28;20306;-73
2022/05/07 00:01:36;;;;;;;5.20;2.70;;;;;;;10.89;63.38;101431.81;2096439;28;20291;-73
2022/05/07 00:02:43;;;;;;;7.32;3.00;;;;;;;10.85;63.67;101425.34;2088817;28;20728;-73
2022/05/07 00:03:48;;;;;;;5.13;2.47;;;;;;;10.84;63.05;101429.09;2095750;28;20294;-73
2022/05/07 00:04:52;;;;;;;5.95;2.58;;;;;;;10.84;63.35;101431.78;2096456;28;20290;-73
2022/05/07 00:05:57;;;;;;;4.80;2.35;;;;;;;10.87;63.98;101431.25;2092015;28;20287;-73
2022/05/07 00:07:06;;;;;;;4.70;2.17;;;;;;;10.84;63.34;101429.09;2090585;28;20295;-72
2022/05/07 00:08:08;;;;;;;3.92;2.30;;;;;;;10.85;63.71;101425.34;2104345;28;20662;-72
2022/05/07 00:09:13;;;;;;;6.18;2.50;;;;;;;10.87;63.25;101428.56;2105681;28;20757;-72
2022/05/07 00:10:17;;;;;;;9.90;2.88;;;;;;;10.86;63.45;101426.94;2096626;28;20290;-73
2022/05/07 00:11:20;;;;;;;4.75;2.50;;;;;;;10.84;63.61;101422.88;2105158;28;20297;-72
2022/05/07 00:12:22;;;;;;;4.60;2.40;;;;;;;10.80;63.80;101425.28;2097239;28;20278;-73
2022/05/07 00:13:26;;;;;;;3.55;2.03;;;;;;;10.70;63.97;101422.53;2080674;28;20300;-73
2022/05/07 00:14:29;;;;;;;4.43;2.35;;;;;;;10.67;64.32;101423.06;2084623;28;20379;-74
2022/05/07 00:15:32;;;;;;;5.25;2.80;;;;;;;10.63;64.16;101421.97;2080641;28;20295;-75
2022/05/07 00:18:06;;;;;;;4.90;2.42;;;;;;;10.61;64.38;101419.50;2097164;28;20313;-74
2022/05/07 00:19:08;;;;;;;;;;;;;;;10.54;64.69;101416.22;2081565;28;20296;-74
2022/05/07 00:20:21;;;;;;;5.30;2.35;;;;;;;10.56;65.10;101421.34;2085234;28;19913;-74
2022/05/07 00:21:24;;;;;;;4.45;2.58;;;;;;;10.57;64.71;101422.97;2088435;28;20298;-74
2022/05/07 00:22:30;;;;;;;5.57;2.50;;;;;;;10.56;64.40;101421.34;2104521;28;20282;-74
2022/05/07 00:23:32;;;;;;;7.38;2.78;;;;;;;10.49;64.94;101434.19;2105338;28;20278;-74
2022/05/07 00:24:34;;;;;;;6.35;3.08;;;;;;;10.57;64.62;101417.59;2105239;28;20274;-74
2022/05/07 00:25:37;;;;;;;6.00;2.47;;;;;;;10.67;64.36;101423.06;2080601;28;20280;-74
2022/05/07 00:26:38;;;;;;;5.18;2.45;;;;;;;10.64;64.86;101420.88;2080860;28;20296;-74
2022/05/07 00:27:41;;;;;;;4.70;2.55;;;;;;;10.64;64.44;101424.38;2064480;28;20304;-74
2022/05/07 00:28:46;;;;;;;5.13;2.35;;;;;;;10.66;63.82;101416.06;2073574;28;20296;-74
2022/05/07 00:29:49;;;;;;;5.50;2.38;;;;;;;10.69;64.59;101418.25;2105581;28;20278;-74
2022/05/07 00:30:52;;;;;;;6.00;2.13;;;;;;;10.63;64.71;101422.75;2104955;28;20297;-75
2022/05/07 00:31:55;;;;;;;6.10;2.20;;;;;;;10.62;64.28;101420.31;2104745;28;20298;-73
2022/05/07 00:33:00;;;;;;;7.75;2.40;;;;;;;10.60;64.81;101419.78;2096908;28;20700;-75
2022/05/07 00:34:05;;;;;;;6.28;2.60;;;;;;;10.62;64.32;101423.84;2089401;28;20299;-75
2022/05/07 00:35:10;;;;;;;4.90;2.20;;;;;;;10.74;63.70;101420.94;2096983;28;20287;-73
2022/05/07 00:36:11;;;;;;;5.78;2.45;;;;;;;10.81;64.32;101418.03;2093940;28;20635;-72
2022/05/07 00:37:15;;;;;;;6.95;2.35;;;;;;;10.86;64.07;101421.56;2096883;28;20687;-72
2022/05/07 00:38:22;;;;;;;5.80;2.20;;;;;;;10.88;64.06;101421.31;2089711;28;20064;-75
2022/05/07 00:39:31;;;;;;;5.03;2.08;;;;;;;10.90;63.77;101411.91;2098859;28;20306;-74
2022/05/07 00:40:36;;;;;;;6.45;2.25;;;;;;;10.96;63.40;101420.00;2088741;28;20302;-74
2022/05/07 00:41:41;;;;;;;5.82;2.28;;;;;;;10.90;63.12;101417.28;2077863;28;20288;-74
2022/05/07 00:42:43;;;;;;;3.67;2.00;;;;;;;10.87;63.58;101420.50;2071525;28;20791;-75
2022/05/07 00:43:46;;;;;;;6.05;2.38;;;;;;;10.84;63.03;101423.69;2080830;28;20284;-74
2022/05/07 00:44:57;;;;;;;3.95;2.15;;;;;;;10.84;63.60;101418.31;2096595;28;20286;-75
2022/05/07 00:46:03;;;;;;;4.95;2.25;;;;;;;10.82;63.57;101411.59;2104752;28;20285;-75
2022/05/07 00:47:19;;;;;;;5.30;2.10;;;;;;;10.82;63.73;101423.16;2088080;28;20953;-75
2022/05/07 00:48:25;;;;;;;4.50;2.08;;;;;;;10.80;64.01;101414.53;2078329;28;20339;-75
2022/05/07 00:49:28;;;;;;;3.88;1.80;;;;;;;10.82;63.32;101412.41;2088642;28;20292;-75
2022/05/07 00:52:02;;;;;;;7.13;2.33;;;;;;;10.88;63.32;101408.69;2099395;28;20282;-75
2022/05/07 00:53:10;;;;;;;5.10;2.20;;;;;;;10.87;63.50;101411.63;2104751;28;20808;-73
2022/05/07 00:54:12;;;;;;;4.32;2.00;;;;;;;10.87;63.10;101409.72;2096162;28;20044;-74
2022/05/07 00:55:17;;;;;;;6.13;2.22;;;;;;;10.92;63.40;101405.47;2080209;28;20644;-74
2022/05/07 00:56:23;;;;;;;6.70;2.03;;;;;;;10.94;63.43;101411.38;2089298;28;20846;-74
2022/05/07 00:57:35;;;;;;;5.75;2.05;;;;;;;10.94;62.80;101403.31;2098158;28;20275;-74
2022/05/07 00:58:39;;;;;;;;;;;;;;;10.90;63.34;101403.03;2089239;28;20287;-74
2022/05/07 00:59:45;;;;;;;5.47;2.17;;;;;;;10.87;63.28;101407.03;2085809;28;19916;-74
2022/05/07 01:00:53;;;;;;;5.93;2.22;;;;;;;10.84;63.52;101412.94;2081460;28;20291;-73
2022/05/07 01:01:59;;;;;;;6.88;2.17;;;;;;;10.84;63.01;101401.38;2080532;28;20284;-73
2022/05/07 01:03:04;;;;;;;7.63;2.30;;;;;;;10.82;63.09;101406.22;2080954;28;20284;-73
2022/05/07 01:04:06;;;;;;;5.07;2.17;;;;;;;10.78;63.99;101405.94;2088808;28;20287;-73
2022/05/07 01:05:12;;;;;;;5.78;2.22;;;;;;;10.79;63.51;101404.84;2080749;28;20292;-73
2022/05/07 01:06:16;;;;;;;4.72;2.17;;;;;;;10.80;63.15;101401.09;2089391;28;20287;-72
2022/05/07 01:07:20;;;;;;;4.45;2.10;;;;;;;10.81;63.59;101399.19;2097138;28;20275;-71
2022/05/07 01:08:26;;;;;;;4.82;2.10;;;;;;;10.80;63.16;101403.78;2096568;28;20287;-71
2022/05/07 01:09:32;;;;;;;3.90;1.90;;;;;;;10.81;63.38;101400.03;2081197;28;20315;-72
2022/05/07 01:10:35;;;;;;;5.70;1.98;;;;;;;10.88;63.73;101397.13;2073218;28;20285;-71
2022/05/07 01:11:40;;;;;;;3.97;1.75;;;;;;;10.90;63.04;101395.75;2083668;28;20298;-73
2022/05/07 01:12:47;;;;;;;3.42;1.90;;;;;;;10.83;63.56;101389.00;2097348;28;20282;-72
2022/05/07 01:13:53;;;;;;;4.53;2.00;;;;;;;10.87;62.92;101395.47;2103736;28;20294;-71
2022/05/07 01:14:58;;;;;;;3.85;1.80;;;;;;;10.86;62.98;101394.66;2088212;28;20339;-70
2022/05/07 01:16:04;;;;;;;4.15;2.10;;;;;;;10.86;63.23;101388.47;2079923;28;20776;-70
2022/05/07 01:17:12;;;;;;;4.85;1.80;;;;;;;10.85;63.60;101389.56;2089349;28;20291;-71
2022/05/07 01:18:21;;;;;;;4.22;2.35;;;;;;;10.85;63.08;101390.38;2089314;28;20287;-71
2022/05/07 01:19:27;;;;;;;3.03;1.70;;;;;;;10.85;63.30;101387.69;2087669;28;20104;-70
2022/05/07 01:20:31;;;;;;;4.80;1.80;;;;;;;10.78;63.64;101392.47;2073119;28;20285;-70
2022/05/07 01:21:38;;;;;;;4.55;1.80;;;;;;;10.75;63.25;101393.00;2074648;28;20281;-70
2022/05/07 01:22:42;;;;;;;3.08;1.67;;;;;;;10.80;63.06;101393.00;2090122;28;20295;-70
2022/05/07 01:23:49;;;;;;;2.95;1.50;;;;;;;10.76;63.73;101388.44;2080100;28;20288;-71
2022/05/07 01:24:53;;;;;;;4.07;1.80;;;;;;;10.71;63.71;101386.50;2081685;28;20280;-71
2022/05/07 01:26:00;;;;;;;3.60;1.67;;;;;;;10.73;63.35;101384.38;2090499;28;20834;-71
2022/05/07 01:27:07;;;;;;;4.00;1.70;;;;;;;10.70;63.59;101387.56;2089794;28;20271;-71
2022/05/07 01:28:11;;;;;;;3.80;1.58;;;;;;;10.68;64.13;101385.13;2089810;28;20283;-71
2022/05/07 01:29:16;;;;;;;3.92;1.67;;;;;;;10.68;63.89;101382.44;2088553;28;20283;-70
2022/05/07 01:30:20;;;;;;;3.40;1.55;;;;;;;10.67;63.21;101386.22;2082120;28;20315;-70
2022/05/07 01:31:26;;;;;;;2.80;1.58;;;;;;;10.67;63.65;101388.09;2081954;28;20276;-70
2022/05/07 01:32:30;;;;;;;3.08;1.48;;;;;;;10.60;64.13;101385.63;2075931;28;20277;-70
2022/05/07 01:33:36;;;;;;;2.20;1.48;;;;;;;10.65;63.97;101390.22;2083553;28;20307;-72
2022/05/07 01:34:45;;;;;;;2.53;1.55;;;;;;;10.65;64.02;101388.34;2099722;28;20291;-73
2022/05/07 01:35:51;;;;;;;3.45;1.60;;;;;;;10.66;63.86;101378.41;2095565;28;21038;-73
2022/05/07 01:36:55;;;;;;;3.53;1.60;;;;;;;10.65;63.44;101385.66;2085624;28;20037;-73
2022/05/07 01:37:57;;;;;;;3.05;1.40;;;;;;;10.62;64.16;101388.03;2093668;28;20298;-74
2022/05/07 01:39:04;;;;;;;4.90;1.75;;;;;;;10.69;64.02;101383.28;2091904;28;20279;-73
2022/05/07 01:40:08;;;;;;;3.20;1.40;;;;;;;10.77;63.40;101384.66;2083006;28;20292;-73
2022/05/07 01:41:15;;;;;;;3.83;1.55;;;;;;;10.76;63.52;101383.03;2083064;28;20295;-73
2022/05/07 01:42:20;;;;;;;4.05;1.60;;;;;;;10.76;63.20;101378.47;2090758;28;20059;-73
2022/05/07 01:43:28;;;;;;;3.78;1.45;;;;;;;10.75;63.19;101386.78;2090125;28;20287;-73
2022/05/07 01:44:37;;;;;;;3.67;1.65;;;;;;;10.77;63.81;101390.84;2084157;28;20318;-74
2022/05/07 01:45:41;;;;;;;5.18;1.65;;;;;;;10.83;63.33;101387.13;2099324;28;20286;-72
2022/05/07 01:48:11;;;;;;;3.78;1.70;;;;;;;10.83;63.44;101389.81;2087475;28;20766;-72
2022/05/07 01:49:23;;;;;;;2.22;1.60;;;;;;;10.86;63.10;101386.59;2088027;28;20997;-73
2022/05/07 01:50:31;;;;;;;4.03;1.48;;;;;;;10.93;62.89;101393.63;2099558;28;20293;-73
2022/05/07 01:51:34;;;;;;;5.25;1.70;;;;;;;10.93;62.41;101385.56;2088917;28;20710;-72
2022/05/07 01:52:37;;;;;;;5.05;1.60;;;;;;;10.95;62.51;101386.13;2068504;28;20815;-74
2022/05/07 01:53:43;;;;;;;4.57;1.50;;;;;;;10.87;62.64;101396.28;2089829;28;20699;-73
2022/05/07 01:54:46;;;;;;;4.22;1.98;;;;;;;10.87;63.02;101392.78;2097872;28;20706;-73
2022/05/07 01:55:49;;;;;;;4.20;1.95;;;;;;;10.76;63.10;101391.91;2097956;28;20290;-73
2022/05/07 01:56:56;;;;;;;5.80;1.70;;;;;;;10.75;63.11;101387.63;2097179;28;20306;-73
2022/05/07 01:58:02;;;;;;;5.82;2.00;;;;;;;10.79;63.32;101387.91;2090565;28;20302;-73
2022/05/07 01:59:03;;;;;;;3.45;1.80;;;;;;;10.82;63.35;101377.44;2082718;28;20299;-73
2022/05/07 02:00:13;;;;;;;3.50;1.40;;;;;;;10.78;63.24;101380.88;2092407;28;20632;-73
2022/05/07 02:01:15;;;;;;;4.38;1.70;;;;;;;10.82;62.95;101388.19;2097751;28;20286;-73
2022/05/07 02:02:17;;;;;;;3.90;1.60;;;;;;;10.90;62.93;101373.44;2086519;28;20318;-73
2022/05/07 02:03:27;;;;;;;4.60;1.58;;;;;;;10.93;62.71;101383.66;2083457;28;20288;-73
2022/05/07 02:04:29;;;;;;;3.53;1.60;;;;;;;10.96;62.74;101385.03;2084485;28;20303;-73
2022/05/07 02:05:36;;;;;;;2.95;1.60;;;;;;;10.90;63.03;101381.50;2075045;28;20288;-73
2022/05/07 02:06:43;;;;;;;4.07;1.70;;;;;;;10.83;62.62;101378.25;2075383;28;20320;-74
2022/05/07 02:07:47;;;;;;;4.90;1.92;;;;;;;10.86;62.48;101377.72;2075414;28;20312;-72
2022/05/07 02:08:54;;;;;;;3.55;1.60;;;;;;;10.89;62.59;101372.63;2081929;28;20291;-73
2022/05/07 02:10:01;;;;;;;6.13;2.10;;;;;;;10.94;62.56;101376.41;2088749;28;20774;-73
2022/05/07 02:11:03;;;;;;;2.17;1.45;;;;;;;10.94;62.56;101371.84;2083109;28;20064;-72
2022/05/07 02:12:12;;;;;;;2.70;1.55;;;;;;;10.90;62.83;101376.13;2092026;28;20292;-73
2022/05/07 02:13:20;;;;;;;3.95;1.50;;;;;;;10.92;62.70;101373.19;2090406;28;20779;-74
2022/05/07 02:14:24;;;;;;;2.75;1.70;;;;;;;10.95;62.88;101375.34;2081773;28;20303;-73
2022/05/07 02:15:29;;;;;;;4.68;1.70;;;;;;;10.98;62.85;101374.84;2085117;28;20764;-73
2022/05/07 02:16:32;;;;;;;2.53;1.45;;;;;;;10.97;62.13;101368.66;2097850;28;20290;-73
2022/05/07 02:17:36;;;;;;;4.25;1.60;;;;;;;10.92;62.20;101370.50;2075214;28;20297;-74
2022/05/07 02:18:38;;;;;;;5.18;1.70;;;;;;;10.95;62.68;101367.28;2066406;28;20761;-73
2022/05/07 02:19:41;;;;;;;3.05;1.83;;;;;;;10.94;62.85;101365.66;2082292;28;20304;-73
2022/05/07 02:20:48;;;;;;;5.65;1.70;;;;;;;10.93;62.19;101367.53;2083326;28;20299;-76
2022/05/07 02:21:55;;;;;;;4.72;1.67;;;;;;;10.92;62.77;101375.88;2074240;28;20292;-76
2022/05/07 02:23:01;;;;;;;2.85;1.42;;;;;;;10.94;62.04;101369.16;2075393;28;20285;-75
2022/05/07 02:24:03;;;;;;;2.20;1.40;;;;;;;10.90;62.52;101371.53;2090533;28;20271;-76
2022/05/07 02:25:12;;;;;;;3.97;1.60;;;;;;;10.92;62.50;101374.00;2087989;28;20353;-76
2022/05/07 02:26:14;;;;;;;2.72;1.40;;;;;;;10.97;62.19;101367.81;2090778;28;20500;-77
2022/05/07 02:27:20;;;;;;;5.03;1.75;;;;;;;10.95;62.39;101369.97;2085310;28;20516;-77
2022/05/07 02:28:22;;;;;;;2.88;1.50;;;;;;;11.00;62.56;101362.75;2089243;28;20302;-76
2022/05/07 02:29:31;;;;;;;4.65;1.63;;;;;;;11.04;62.54;101366.53;2074579;28;20649;-77
2022/05/07 02:30:36;;;;;;;3.88;1.58;;;;;;;11.09;62.52;101363.03;2082758;28;20288;-77
2022/05/07 02:31:41;;;;;;;3.53;1.50;;;;;;;11.08;62.40;101361.44;2073399;28;20307;-77
2022/05/07 02:32:43;;;;;;;3.05;1.50;;;;;;;11.03;62.48;101362.19;2071761;28;20304;-78
2022/05/07 02:33:47;;;;;;;3.25;1.80;;;;;;;11.03;62.24;101364.09;2089422;28;20287;-77
2022/05/07 02:34:52;;;;;;;3.58;1.58;;;;;;;11.02;62.04;101365.97;2084808;28;20326;-77
2022/05/07 02:36:04;;;;;;;3.13;1.45;;;;;;;10.99;62.06;101368.38;2084472;28;20291;-77
2022/05/07 02:37:09;;;;;;;3.90;1.50;;;;;;;10.93;62.09;101361.34;2091544;28;20294;-77
2022/05/07 02:38:14;;;;;;;2.97;1.50;;;;;;;10.96;62.71;101360.81;2098422;28;20283;-73
2022/05/07 02:39:18;;;;;;;2.60;1.83;;;;;;;10.95;62.39;101369.97;2081942;28;20299;-76
2022/05/07 02:40:26;;;;;;;3.42;1.55;;;;;;;10.93;62.80;101367.53;2082104;28;20371;-74
2022/05/07 02:42:51;;;;;;;;;;;;;;;11.05;62.45;101370.03;2106009;28;20282;-76
2022/05/07 02:43:58;;;;;;;4.80;1.58;;;;;;;11.11;62.55;101369.78;2098033;28;19916;-76
2022/05/07 02:45:01;;;;;;;3.85;2.05;;;;;;;11.15;62.27;101370.06;2089466;28;20296;-75
2022/05/07 02:46:06;;;;;;;3.92;1.50;;;;;;;11.19;61.62;101376.56;2082283;28;20296;-76
2022/05/07 02:47:11;;;;;;;3.63;1.42;;;;;;;11.23;61.92;101372.25;2090821;28;20779;-77
2022/05/07 02:48:13;;;;;;;2.72;1.40;;;;;;;11.24;61.79;101368.50;2097987;28;20294;-76
2022/05/07 02:49:15;;;;;;;3.47;1.70;;;;;;;11.22;61.87;101365.25;2096411;28;20793;-77
2022/05/07 02:50:17;;;;;;;3.05;1.50;;;;;;;11.30;61.49;101363.94;2096697;28;20294;-79
2022/05/07 02:51:25;;;;;;;2.60;1.48;;;;;;;11.33;61.34;101366.91;2096884;28;20283;-76
2022/05/07 02:52:32;;;;;;;3.33;1.40;;;;;;;11.33;61.75;101364.22;2088245;28;20346;-75
2022/05/07 02:53:35;;;;;;;5.05;2.00;;;;;;;11.35;61.30;101364.78;2089406;28;20783;-75
2022/05/07 02:54:38;;;;;;;3.63;1.80;;;;;;;11.41;61.58;101370.16;2086928;28;20303;-78
2022/05/07 02:55:39;;;;;;;1.75;1.40;;;;;;;11.46;61.26;101370.19;2071618;28;20384;-76
2022/05/07 02:56:44;;;;;;;4.20;1.60;;;;;;;11.46;61.47;101370.19;2087960;28;20303;-76
2022/05/07 02:57:48;;;;;;;2.45;1.50;;;;;;;11.44;61.22;101372.31;2087699;28;20832;-78
2022/05/07 02:58:54;;;;;;;5.85;1.42;;;;;;;11.35;61.64;101364.78;2095864;28;20291;-78
2022/05/07 02:59:57;;;;;;;1.63;1.27;;;;;;;11.39;61.58;101369.63;2090855;28;20295;-77
2022/05/07 03:00:59;;;;;;;2.75;1.40;;;;;;;11.30;61.48;101372.81;2079424;28;20299;-79
2022/05/07 03:02:08;;;;;;;4.18;1.60;;;;;;;11.38;61.40;101374.22;2073357;28;20950;-78
2022/05/07 03:03:13;;;;;;;2.35;1.40;;;;;;;11.40;61.36;101372.06;2083212;28;20318;-77
2022/05/07 03:04:15;;;;;;;4.43;2.15;;;;;;;11.39;61.60;101369.63;2088916;28;20302;-77
2022/05/07 03:05:20;;;;;;;3.53;1.40;;;;;;;11.36;61.42;101371.78;2093046;28;20298;-77
2022/05/07 03:06:29;;;;;;;2.45;1.42;;;;;;;11.37;61.79;101370.69;2096360;28;20283;-77
2022/05/07 03:07:34;;;;;;;3.35;1.55;;;;;;;11.42;61.18;101369.91;2090089;28;20291;-74
2022/05/07 03:08:47;;;;;;;3.35;1.50;;;;;;;11.48;61.54;101368.88;2096130;28;20299;-76
2022/05/07 03:09:52;;;;;;;3.15;1.55;;;;;;;11.53;61.45;101366.16;2080565;28;20291;-74
2022/05/07 03:10:58;;;;;;;4.20;1.67;;;;;;;11.63;61.24;101369.97;2081102;28;20623;-75
2022/05/07 03:12:00;;;;;;;2.78;1.67;;;;;;;11.70;60.95;101371.34;2071820;28;20293;-73
2022/05/07 03:13:06;;;;;;;3.17;1.50;;;;;;;11.78;60.65;101368.13;2079058;28;20355;-81
2022/05/07 03:14:07;;;;;;;1.65;1.30;;;;;;;11.74;60.79;101372.44;2081076;28;20057;-81
2022/05/07 03:15:10;;;;;;;2.80;1.40;;;;;;;11.83;60.75;101373.53;2075227;28;21615;-80
2022/05/07 03:16:14;;;;;;;3.13;1.60;;;;;;;11.93;60.28;101369.25;2065501;28;20533;-80
2022/05/07 03:17:19;;;;;;;2.00;1.40;;;;;;;11.95;60.08;101370.63;2082448;28;20052;-81
2022/05/07 03:18:22;;;;;;;1.70;1.20;;;;;;;12.03;60.11;101369.25;2103839;28;20301;-80
2022/05/07 03:19:35;;;;;;;3.03;1.23;;;;;;;12.06;60.19;101368.72;2103999;28;20511;-77
2022/05/07 03:20:38;;;;;;;6.13;1.67;;;;;;;12.06;59.84;101369.53;2103591;28;20507;-77
2022/05/07 03:21:46;;;;;;;3.92;1.40;;;;;;;12.05;59.63;101375.22;2103706;28;20044;-78
2022/05/07 03:22:48;;;;;;;2.90;1.20;;;;;;;12.08;59.92;101374.66;2103794;28;20056;-77
2022/05/07 03:23:53;;;;;;;4.85;1.40;;;;;;;12.07;59.49;101375.72;2087784;28;20064;-78
2022/05/07 03:24:57;;;;;;;2.63;1.20;;;;;;;12.12;59.96;101372.25;2080895;28;20053;-78
2022/05/07 03:26:03;;;;;;;2.63;1.00;;;;;;;12.09;59.61;101368.19;2083430;28;20056;-78
2022/05/07 03:27:07;;;;;;;5.70;1.55;;;;;;;12.13;59.84;101373.84;2080276;28;20053;-77
2022/05/07 03:28:09;;;;;;;4.38;1.20;;;;;;;12.06;59.69;101369.53;2076213;28;20045;-77
2022/05/07 03:29:14;;;;;;;3.85;1.38;;;;;;;12.07;59.88;101367.66;2080834;28;20057;-85
2022/05/07 03:30:16;;;;;;;2.75;1.20;;;;;;;12.08;59.67;101366.59;2091237;28;20519;-86
2022/05/07 03:31:26;;;;;;;;;;;;;;;12.05;59.47;101367.13;2107340;28;20638;-88
2022/05/07 03:32:27;;;;;;;4.68;2.88;;;;;;;12.10;59.47;101367.09;2091366;28;20011;-88
2022/05/07 03:33:34;;;;;;;2.13;1.08;;;;;;;12.04;59.48;101365.47;2082684;28;20060;-85
2022/05/07 03:34:38;;;;;;;2.28;1.30;;;;;;;12.04;59.31;101369.00;2089265;28;20048;-79
2022/05/07 03:35:43;;;;;;;2.80;1.30;;;;;;;12.02;59.68;101365.75;2096909;28;20063;-92
2022/05/07 03:36:46;;;;;;;2.67;1.45;;;;;;;12.01;59.44;101361.47;2087856;28;20053;-89
2022/05/07 03:37:49;;;;;;;2.60;1.30;;;;;;;12.09;59.39;101368.19;2070015;28;20410;-87
2022/05/07 03:38:53;;;;;;;2.13;1.35;;;;;;;12.16;59.17;101373.31;2065914;28;20058;-78
2022/05/07 03:40:00;;;;;;;3.15;1.30;;;;;;;12.24;58.92;101373.59;2081574;28;20065;-82
2022/05/07 03:41:04;;;;;;;3.35;1.60;;;;;;;12.28;58.93;101371.16;2080044;28;20072;-80
2022/05/07 03:42:13;;;;;;;2.45;1.40;;;;;;;12.26;58.55;101367.91;2090072;28;20049;-79
2022/05/07 03:43:16;;;;;;;1.85;1.20;;;;;;;12.26;58.63;101363.38;2096551;28;20051;-79
2022/05/07 03:44:21;;;;;;;3.33;1.30;;;;;;;12.27;58.50;101370.38;2080289;28;20109;-79
2022/05/07 03:45:30;;;;;;;1.90;1.27;;;;;;;12.29;58.79;101372.78;2073387;28;20037;-79
2022/05/07 03:46:33;;;;;;;2.35;1.20;;;;;;;12.39;58.59;101363.88;2073757;28;20042;-77
2022/05/07 03:47:37;;;;;;;2.10;1.30;;;;;;;12.43;58.35;101367.66;2071812;28;20437;-78
2022/05/07 03:48:42;;;;;;;3.40;1.20;;;;;;;12.48;58.35;101370.34;2080827;28;20056;-78
2022/05/07 03:49:44;;;;;;;2.10;1.50;;;;;;;12.58;58.19;101370.34;2071624;28;20042;-76
2022/05/07 03:50:49;;;;;;;2.35;1.60;;;;;;;12.62;58.42;101371.41;2083109;28;20060;-78
2022/05/07 03:53:32;;;;;;;4.13;1.40;;;;;;;12.71;58.02;101375.19;2098510;28;20052;-76
2022/05/07 03:54:47;;;;;;;2.35;1.38;;;;;;;12.80;57.89;101367.34;2070750;28;20046;-70
2022/05/07 03:55:49;;;;;;;1.85;1.08;;;;;;;12.83;57.50;101363.25;2077979;28;20548;-70
2022/05/07 03:57:03;;;;;;;2.88;1.38;;;;;;;12.85;57.40;101361.13;2097333;28;20048;-70
2022/05/07 03:58:11;;;;;;;3.28;1.30;;;;;;;12.88;57.34;101357.88;2080260;28;20095;-71
2022/05/07 03:59:14;;;;;;;3.53;1.25;;;;;;;12.91;57.29;101360.03;2084009;28;20041;-70
2022/05/07 04:00:22;;;;;;;4.10;1.60;;;;;;;12.98;57.04;101355.13;2087997;28;20053;-70
2022/05/07 04:01:29;;;;;;;2.97;1.58;;;;;;;13.03;56.99;101360.53;2082179;28;20057;-70
2022/05/07 04:02:35;;;;;;;2.60;1.58;;;;;;;13.07;56.96;101358.88;2089235;28;20052;-70
2022/05/07 04:03:41;;;;;;;1.92;1.30;;;;;;;13.06;57.03;101365.38;2087758;28;20045;-70
2022/05/07 04:04:47;;;;;;;2.05;1.27;;;;;;;13.07;56.95;101353.47;2089764;28;20060;-70
2022/05/07 04:05:54;;;;;;;3.53;1.60;;;;;;;13.11;56.81;101357.25;2095275;28;20060;-70
2022/05/07 04:07:00;;;;;;;2.03;1.48;;;;;;;13.11;56.51;101351.84;2094716;28;20052;-71
2022/05/07 04:08:04;;;;;;;3.80;1.42;;;;;;;13.15;56.56;101363.72;2095693;28;20060;-70
2022/05/07 04:09:09;;;;;;;3.10;1.27;;;;;;;13.15;56.58;101354.81;2086916;28;20068;-70
2022/05/07 04:10:12;;;;;;;3.25;1.48;;;;;;;13.15;56.44;101344.81;2071644;28;20125;-71
2022/05/07 04:11:20;;;;;;;3.35;1.40;;;;;;;13.12;56.45;101350.78;2083846;28;20622;-71
2022/05/07 04:12:26;;;;;;;1.80;1.30;;;;;;;13.10;56.56;101344.84;2103386;28;20040;-71
2022/05/07 04:13:29;;;;;;;3.60;1.98;;;;;;;13.12;56.44;101344.56;2101679;28;20055;-70
2022/05/07 04:14:36;;;;;;;2.78;1.55;;;;;;;13.13;56.29;101354.28;2080255;28;20037;-71
2022/05/07 04:15:44;;;;;;;3.78;1.52;;;;;;;13.11;56.42;101351.84;2073441;28;20049;-70
2022/05/07 04:16:49;;;;;;;2.25;1.27;;;;;;;13.10;56.81;101350.22;2089508;28;20044;-71
2022/05/07 04:17:53;;;;;;;2.33;1.38;;;;;;;13.04;56.46;101355.94;2087711;28;20049;-71
2022/05/07 04:18:56;;;;;;;2.08;1.30;;;;;;;13.06;56.86;101349.19;2071437;28;20045;-71
2022/05/07 04:20:03;;;;;;;4.82;1.90;;;;;;;13.05;56.66;101347.56;2065105;28;20050;-71
2022/05/07 04:21:08;;;;;;;2.00;1.20;;;;;;;12.97;56.70;101350.81;2088709;28;20422;-70
2022/05/07 04:22:12;;;;;;;4.65;1.52;;;;;;;12.97;56.79;101350.81;2095446;28;20060;-71
2022/05/07 04:23:23;;;;;;;2.33;1.42;;;;;;;12.98;57.06;101347.03;2089096;28;20489;-70
2022/05/07 04:24:33;;;;;;;2.05;1.15;;;;;;;13.04;56.98;101345.13;2097037;28;20541;-70
2022/05/07 04:25:38;;;;;;;2.00;1.05;;;;;;;13.07;56.95;101348.09;2094543;28;20424;-69
2022/05/07 04:26:40;;;;;;;3.55;1.30;;;;;;;13.03;56.80;101344.31;2076435;28;20065;-70
2022/05/07 04:27:45;;;;;;;1.40;1.15;;;;;;;13.11;56.61;101346.44;2071217;28;20061;-70
2022/05/07 04:28:48;;;;;;;3.22;1.27;;;;;;;13.17;56.66;101349.94;2056319;28;20062;-70
2022/05/07 04:29:49;;;;;;;3.25;1.10;;;;;;;13.22;56.64;101337.22;2071861;28;20057;-71
2022/05/07 04:30:59;;;;;;;2.30;1.40;;;;;;;13.23;56.31;101338.84;2089572;28;20531;-70
2022/05/07 04:32:08;;;;;;;2.97;1.40;;;;;;;13.28;56.54;101339.94;2103325;28;20068;-70
2022/05/07 04:33:16;;;;;;;3.10;1.60;;;;;;;13.31;56.36;101336.69;2088047;28;20051;-70
2022/05/07 04:34:22;;;;;;;5.05;1.60;;;;;;;13.33;56.09;101338.00;2088473;28;20053;-71
2022/05/07 04:35:26;;;;;;;3.70;1.40;;;;;;;13.41;55.99;101334.72;2087536;28;20044;-70
2022/05/07 04:36:31;;;;;;;3.25;1.20;;;;;;;13.49;55.90;101337.94;2080045;28;21126;-70
2022/05/07 04:37:38;;;;;;;2.95;1.30;;;;;;;13.56;55.55;101335.75;2081042;28;20044;-70
2022/05/07 04:38:40;;;;;;;4.57;1.40;;;;;;;13.59;55.59;101336.00;2075797;28;20776;-71
2022/05/07 04:39:49;;;;;;;3.47;1.33;;;;;;;13.72;55.15;101337.25;2072251;28;20501;-69
2022/05/07 04:40:54;;;;;;;3.42;1.20;;;;;;;13.81;55.06;101340.19;2065317;28;20073;-70
2022/05/07 04:42:03;;;;;;;2.42;1.50;;;;;;;13.94;55.06;101346.84;2082966;28;20037;-71
2022/05/07 04:43:22;;;;;;;3.50;1.30;;;;;;;13.96;54.78;101342.75;2099300;28;20035;-70
2022/05/07 04:44:24;;;;;;;4.60;1.50;;;;;;;13.98;54.73;101332.47;2087246;28;20056;-70
2022/05/07 04:45:28;;;;;;;1.73;1.20;;;;;;;14.00;54.86;101341.13;2088975;28;20028;-70
2022/05/07 04:46:40;;;;;;;2.50;1.20;;;;;;;14.05;54.38;101341.06;2088011;28;20059;-72
2022/05/07 04:47:48;;;;;;;4.38;1.30;;;;;;;14.04;54.56;101335.97;2073932;28;20060;-71
2022/05/07 04:49:05;;;;;;;3.55;1.50;;;;;;;13.97;54.17;101340.88;2082180;28;20049;-70
2022/05/07 04:50:13;;;;;;;2.42;1.48;;;;;;;13.93;54.53;101339.81;2080224;28;20044;-70
2022/05/07 04:51:21;;;;;;;3.63;1.30;;;;;;;13.90;54.75;101347.41;2087281;28;20119;-69
2022/05/07 04:52:38;;;;;;;6.85;2.03;;;;;;;13.97;54.46;101336.28;2082079;28;20509;-69
2022/05/07 04:53:45;;;;;;;2.90;1.42;;;;;;;14.02;54.25;101341.63;2084710;28;20049;-70
2022/05/07 04:54:54;;;;;;;2.80;1.50;;;;;;;14.00;54.43;101334.91;2079749;28;20473;-70
2022/05/07 04:55:56;;;;;;;2.50;1.40;;;;;;;14.04;54.53;101338.66;2074801;28;20050;-70
2022/05/07 04:57:00;;;;;;;4.43;1.23;;;;;;;14.13;54.51;101334.25;2072804;28;20057;-70
2022/05/07 04:58:15;;;;;;;2.70;1.40;;;;;;;14.23;54.38;101338.78;2077936;28;20072;-70
2022/05/07 04:59:19;;;;;;;6.60;1.75;;;;;;;14.31;54.24;101336.28;2085727;28;20060;-70
2022/05/07 05:00:52;;;;;;;3.92;1.48;;;;;;;14.41;54.08;101338.06;2088804;28;20424;-71
2022/05/07 05:01:57;;;;;;;2.55;1.40;;;;;;;14.62;53.48;101337.88;2103995;28;20059;-70
2022/05/07 05:03:00;;;;;;;2.13;1.17;;;;;;;14.99;53.01;101335.31;2088952;28;20045;-70
2022/05/07 05:04:04;;;;;;;3.95;1.40;;;;;;;15.47;52.58;101337.94;2080470;28;20041;-71
2022/05/07 05:05:14;;;;;;;2.65;1.33;;;;;;;15.98;51.61;101339.94;2089289;28;20048;-70
2022/05/07 05:06:23;;;;;;;2.50;1.30;;;;;;;16.42;50.33;101338.66;2089019;28;20057;-70
2022/05/07 05:07:47;;;;;;;2.03;1.30;;;;;;;16.98;49.04;101338.72;2087791;28;20044;-70
2022/05/07 05:08:52;;;;;;;2.17;1.40;;;;;;;17.44;48.76;101333.16;2070934;28;20057;-70
2022/05/07 05:09:59;;;;;;;2.47;1.40;;;;;;;17.71;47.41;101340.41;2072539;28;20034;-71
2022/05/07 05:11:11;;;;;;;2.42;1.38;;;;;;;17.76;46.47;101336.78;2084599;28;20045;-69
2022/05/07 05:12:15;;;;;;;2.90;1.70;;;;;;;17.79;46.23;101330.75;2088068;28;20432;-69
2022/05/07 05:13:24;;;;;;;3.13;1.27;;;;;;;17.81;46.20;101333.94;2091216;28;20063;-70